sensor_id;sensor_type;location;lat;lon;timestamp;P1;durP1;ratioP1;P2;durP2;ratioP2
22230;SDS011;11284;48.086;-1.652;2023-05-10T00:00:28;12.02;;;2.65;;
22230;SDS011;11284;48.086;-1.652;2023-05-10T00:02:54;8.85;;;1.85;;
22230;SDS011;11284;48.086;-1.652;2023-05-10T00:05:20;11.23;;;2.67;;
22230;SDS011;11284;48.086;-1.652;2023-05-10T00:07:46;13.15;;;2.45;;
22230;SDS011;11284;48.086;-1.652;2023-05-10T00:10:12;11.52;;;2.35;;
22230;SDS011;11284;48.086;-1.652;2023-05-10T00:12:38;12.77;;;2.20;;
22230;SDS011;11284;48.086;-1.652;2023-05-10T00:15:04;13.27;;;2.72;;
22230;SDS011;11284;48.086;-1.652;2023-05-10T00:17:30;14.68;;;2.47;;
22230;SDS011;11284;48.086;-1.652;2023-05-10T00:19:56;9.65;;;2.67;;
22230;SDS011;11284;48.086;-1.652;2023-05-10T00:22:22;11.88;;;2.30;;
22230;SDS011;11284;48.086;-1.652;2023-05-10T00:24:48;11.10;;;2.40;;
22230;SDS011;11284;48.086;-1.652;2023-05-10T00:27:14;12.73;;;2.33;;
22230;SDS011;11284;48.086;-1.652;2023-05-10T00:29:40;13.52;;;2.70;;
22230;SDS011;11284;48.086;-1.652;2023-05-10T00:32:06;10.30;;;2.40;;
22230;SDS011;11284;48.086;-1.652;2023-05-10T00:34:32;12.82;;;2.60;;
22230;SDS011;11284;48.086;-1.652;2023-05-10T00:36:59;12.80;;;2.33;;
22230;SDS011;11284;48.086;-1.652;2023-05-10T00:39:25;12.38;;;2.55;;
22230;SDS011;11284;48.086;-1.652;2023-05-10T00:41:53;17.30;;;3.30;;
22230;SDS011;11284;48.086;-1.652;2023-05-10T00:44:19;12.35;;;2.90;;
22230;SDS011;11284;48.086;-1.652;2023-05-10T00:46:45;11.32;;;2.55;;
22230;SDS011;11284;48.086;-1.652;2023-05-10T00:49:12;14.55;;;2.40;;
22230;SDS011;11284;48.086;-1.652;2023-05-10T00:51:38;14.18;;;2.80;;
22230;SDS011;11284;48.086;-1.652;2023-05-10T00:54:04;8.60;;;2.40;;
22230;SDS011;11284;48.086;-1.652;2023-05-10T00:56:30;13.88;;;3.08;;
22230;SDS011;11284;48.086;-1.652;2023-05-10T00:58:56;14.45;;;2.95;;
22230;SDS011;11284;48.086;-1.652;2023-05-10T01:01:22;17.50;;;2.78;;
22230;SDS011;11284;48.086;-1.652;2023-05-10T01:03:48;14.43;;;2.60;;
22230;SDS011;11284;48.086;-1.652;2023-05-10T01:06:14;10.23;;;2.70;;
22230;SDS011;11284;48.086;-1.652;2023-05-10T01:08:40;15.40;;;2.83;;
22230;SDS011;11284;48.086;-1.652;2023-05-10T01:11:06;14.82;;;2.67;;
22230;SDS011;11284;48.086;-1.652;2023-05-10T01:13:39;10.70;;;2.63;;
22230;SDS011;11284;48.086;-1.652;2023-05-10T01:16:07;11.43;;;2.70;;
22230;SDS011;11284;48.086;-1.652;2023-05-10T01:18:34;12.65;;;2.22;;
22230;SDS011;11284;48.086;-1.652;2023-05-10T01:23:41;14.68;;;2.85;;
22230;SDS011;11284;48.086;-1.652;2023-05-10T01:26:19;11.05;;;2.53;;
22230;SDS011;11284;48.086;-1.652;2023-05-10T01:31:29;12.88;;;2.40;;
22230;SDS011;11284;48.086;-1.652;2023-05-10T01:34:06;16.38;;;2.95;;
22230;SDS011;11284;48.086;-1.652;2023-05-10T01:36:51;16.75;;;3.47;;
22230;SDS011;11284;48.086;-1.652;2023-05-10T01:39:20;15.05;;;2.90;;
22230;SDS011;11284;48.086;-1.652;2023-05-10T01:41:52;14.60;;;2.88;;
22230;SDS011;11284;48.086;-1.652;2023-05-10T01:44:31;13.32;;;3.00;;
22230;SDS011;11284;48.086;-1.652;2023-05-10T01:47:07;15.02;;;2.72;;
22230;SDS011;11284;48.086;-1.652;2023-05-10T01:49:37;11.65;;;3.13;;
22230;SDS011;11284;48.086;-1.652;2023-05-10T01:52:09;16.73;;;2.90;;
22230;SDS011;11284;48.086;-1.652;2023-05-10T01:54:37;14.00;;;3.40;;
22230;SDS011;11284;48.086;-1.652;2023-05-10T01:57:05;13.23;;;3.20;;
22230;SDS011;11284;48.086;-1.652;2023-05-10T01:59:34;16.83;;;3.03;;
22230;SDS011;11284;48.086;-1.652;2023-05-10T02:02:07;15.32;;;3.13;;
22230;SDS011;11284;48.086;-1.652;2023-05-10T02:04:36;11.88;;;2.70;;
22230;SDS011;11284;48.086;-1.652;2023-05-10T02:07:03;13.80;;;3.50;;
22230;SDS011;11284;48.086;-1.652;2023-05-10T02:09:29;15.27;;;2.88;;
22230;SDS011;11284;48.086;-1.652;2023-05-10T02:11:56;16.00;;;3.10;;
22230;SDS011;11284;48.086;-1.652;2023-05-10T02:14:23;17.45;;;3.25;;
22230;SDS011;11284;48.086;-1.652;2023-05-10T02:16:50;12.60;;;3.10;;
22230;SDS011;11284;48.086;-1.652;2023-05-10T02:19:17;14.48;;;3.05;;
22230;SDS011;11284;48.086;-1.652;2023-05-10T02:21:44;14.05;;;3.47;;
22230;SDS011;11284;48.086;-1.652;2023-05-10T02:24:11;14.05;;;3.30;;
22230;SDS011;11284;48.086;-1.652;2023-05-10T02:26:37;15.73;;;3.45;;
22230;SDS011;11284;48.086;-1.652;2023-05-10T02:29:03;15.63;;;3.00;;
22230;SDS011;11284;48.086;-1.652;2023-05-10T02:31:31;14.90;;;3.53;;
22230;SDS011;11284;48.086;-1.652;2023-05-10T02:33:58;14.40;;;2.95;;
22230;SDS011;11284;48.086;-1.652;2023-05-10T02:36:25;19.27;;;3.20;;
22230;SDS011;11284;48.086;-1.652;2023-05-10T02:38:52;17.73;;;3.08;;
22230;SDS011;11284;48.086;-1.652;2023-05-10T02:41:19;13.30;;;3.10;;
22230;SDS011;11284;48.086;-1.652;2023-05-10T02:43:47;18.25;;;3.15;;
22230;SDS011;11284;48.086;-1.652;2023-05-10T02:46:14;14.05;;;3.33;;
22230;SDS011;11284;48.086;-1.652;2023-05-10T02:48:40;16.05;;;3.47;;
22230;SDS011;11284;48.086;-1.652;2023-05-10T02:51:07;13.07;;;3.20;;
22230;SDS011;11284;48.086;-1.652;2023-05-10T02:53:34;17.15;;;3.20;;
22230;SDS011;11284;48.086;-1.652;2023-05-10T02:56:05;20.27;;;3.45;;
22230;SDS011;11284;48.086;-1.652;2023-05-10T02:58:32;16.17;;;3.00;;
22230;SDS011;11284;48.086;-1.652;2023-05-10T03:00:59;14.25;;;3.10;;
22230;SDS011;11284;48.086;-1.652;2023-05-10T03:03:25;20.50;;;4.20;;
22230;SDS011;11284;48.086;-1.652;2023-05-10T03:05:52;16.10;;;3.30;;
22230;SDS011;11284;48.086;-1.652;2023-05-10T03:08:22;14.35;;;2.55;;
22230;SDS011;11284;48.086;-1.652;2023-05-10T03:13:37;15.35;;;3.47;;
22230;SDS011;11284;48.086;-1.652;2023-05-10T03:16:08;16.33;;;3.65;;
22230;SDS011;11284;48.086;-1.652;2023-05-10T03:18:44;19.05;;;3.55;;
22230;SDS011;11284;48.086;-1.652;2023-05-10T03:21:12;15.38;;;4.22;;
22230;SDS011;11284;48.086;-1.652;2023-05-10T03:23:40;18.73;;;3.75;;
22230;SDS011;11284;48.086;-1.652;2023-05-10T03:26:07;14.93;;;3.20;;
22230;SDS011;11284;48.086;-1.652;2023-05-10T03:28:34;17.33;;;3.45;;
22230;SDS011;11284;48.086;-1.652;2023-05-10T03:31:01;16.55;;;3.80;;
22230;SDS011;11284;48.086;-1.652;2023-05-10T03:33:28;17.65;;;3.85;;
22230;SDS011;11284;48.086;-1.652;2023-05-10T03:35:54;14.70;;;2.90;;
22230;SDS011;11284;48.086;-1.652;2023-05-10T03:38:20;11.82;;;2.90;;
22230;SDS011;11284;48.086;-1.652;2023-05-10T03:40:46;17.33;;;3.15;;
22230;SDS011;11284;48.086;-1.652;2023-05-10T03:43:12;15.20;;;3.78;;
22230;SDS011;11284;48.086;-1.652;2023-05-10T03:45:38;17.45;;;3.20;;
22230;SDS011;11284;48.086;-1.652;2023-05-10T03:48:04;15.68;;;3.30;;
22230;SDS011;11284;48.086;-1.652;2023-05-10T03:50:30;17.30;;;3.78;;
22230;SDS011;11284;48.086;-1.652;2023-05-10T03:52:56;12.23;;;2.78;;
22230;SDS011;11284;48.086;-1.652;2023-05-10T03:55:23;18.40;;;3.28;;
22230;SDS011;11284;48.086;-1.652;2023-05-10T03:57:49;11.32;;;2.67;;
22230;SDS011;11284;48.086;-1.652;2023-05-10T04:00:15;13.18;;;3.13;;
22230;SDS011;11284;48.086;-1.652;2023-05-10T04:02:41;15.73;;;3.40;;
22230;SDS011;11284;48.086;-1.652;2023-05-10T04:05:07;14.32;;;2.55;;
22230;SDS011;11284;48.086;-1.652;2023-05-10T04:07:33;14.52;;;3.70;;
22230;SDS011;11284;48.086;-1.652;2023-05-10T04:09:59;17.30;;;3.65;;
22230;SDS011;11284;48.086;-1.652;2023-05-10T04:12:25;19.67;;;3.63;;
22230;SDS011;11284;48.086;-1.652;2023-05-10T04:14:52;20.83;;;3.58;;
22230;SDS011;11284;48.086;-1.652;2023-05-10T04:17:18;14.70;;;3.10;;
22230;SDS011;11284;48.086;-1.652;2023-05-10T04:19:44;20.38;;;3.30;;
22230;SDS011;11284;48.086;-1.652;2023-05-10T04:22:10;16.48;;;3.75;;
22230;SDS011;11284;48.086;-1.652;2023-05-10T04:24:36;14.52;;;2.78;;
22230;SDS011;11284;48.086;-1.652;2023-05-10T04:27:02;20.77;;;4.07;;
22230;SDS011;11284;48.086;-1.652;2023-05-10T04:29:28;17.13;;;3.35;;
22230;SDS011;11284;48.086;-1.652;2023-05-10T04:31:54;17.85;;;3.65;;
22230;SDS011;11284;48.086;-1.652;2023-05-10T04:34:21;12.18;;;3.13;;
22230;SDS011;11284;48.086;-1.652;2023-05-10T04:36:47;14.25;;;3.05;;
22230;SDS011;11284;48.086;-1.652;2023-05-10T04:39:13;12.25;;;3.03;;
22230;SDS011;11284;48.086;-1.652;2023-05-10T04:41:39;15.70;;;2.80;;
22230;SDS011;11284;48.086;-1.652;2023-05-10T04:44:05;16.10;;;3.75;;
22230;SDS011;11284;48.086;-1.652;2023-05-10T04:46:31;14.23;;;3.15;;
22230;SDS011;11284;48.086;-1.652;2023-05-10T04:48:57;18.38;;;3.38;;
22230;SDS011;11284;48.086;-1.652;2023-05-10T04:51:23;15.35;;;3.38;;
22230;SDS011;11284;48.086;-1.652;2023-05-10T04:53:49;20.20;;;4.07;;
22230;SDS011;11284;48.086;-1.652;2023-05-10T04:56:15;17.08;;;3.70;;
22230;SDS011;11284;48.086;-1.652;2023-05-10T04:58:41;18.33;;;3.15;;
22230;SDS011;11284;48.086;-1.652;2023-05-10T05:01:08;15.95;;;3.70;;
22230;SDS011;11284;48.086;-1.652;2023-05-10T05:03:35;13.70;;;3.13;;
22230;SDS011;11284;48.086;-1.652;2023-05-10T05:06:01;15.95;;;3.28;;
22230;SDS011;11284;48.086;-1.652;2023-05-10T05:08:27;22.08;;;3.65;;
22230;SDS011;11284;48.086;-1.652;2023-05-10T05:10:53;15.98;;;3.22;;
22230;SDS011;11284;48.086;-1.652;2023-05-10T05:13:19;15.85;;;3.50;;
22230;SDS011;11284;48.086;-1.652;2023-05-10T05:15:45;17.38;;;3.58;;
22230;SDS011;11284;48.086;-1.652;2023-05-10T05:18:11;17.48;;;3.40;;
22230;SDS011;11284;48.086;-1.652;2023-05-10T05:20:37;15.57;;;3.47;;
22230;SDS011;11284;48.086;-1.652;2023-05-10T05:23:03;17.55;;;3.83;;
22230;SDS011;11284;48.086;-1.652;2023-05-10T05:25:29;15.85;;;3.58;;
22230;SDS011;11284;48.086;-1.652;2023-05-10T05:27:55;17.45;;;4.07;;
22230;SDS011;11284;48.086;-1.652;2023-05-10T05:30:21;15.05;;;3.97;;
22230;SDS011;11284;48.086;-1.652;2023-05-10T05:32:47;20.15;;;3.67;;
22230;SDS011;11284;48.086;-1.652;2023-05-10T05:35:13;19.58;;;3.53;;
22230;SDS011;11284;48.086;-1.652;2023-05-10T05:37:39;17.55;;;3.72;;
22230;SDS011;11284;48.086;-1.652;2023-05-10T05:40:06;17.77;;;3.72;;
22230;SDS011;11284;48.086;-1.652;2023-05-10T05:42:32;14.75;;;3.40;;
22230;SDS011;11284;48.086;-1.652;2023-05-10T05:44:58;16.83;;;3.25;;
22230;SDS011;11284;48.086;-1.652;2023-05-10T05:47:24;15.10;;;3.13;;
22230;SDS011;11284;48.086;-1.652;2023-05-10T05:49:50;14.35;;;3.35;;
22230;SDS011;11284;48.086;-1.652;2023-05-10T05:52:16;15.80;;;3.13;;
22230;SDS011;11284;48.086;-1.652;2023-05-10T05:54:42;15.43;;;3.53;;
22230;SDS011;11284;48.086;-1.652;2023-05-10T05:57:08;15.38;;;3.42;;
22230;SDS011;11284;48.086;-1.652;2023-05-10T05:59:34;16.27;;;3.97;;
22230;SDS011;11284;48.086;-1.652;2023-05-10T06:02:00;17.52;;;3.33;;
22230;SDS011;11284;48.086;-1.652;2023-05-10T06:04:26;14.65;;;3.40;;
22230;SDS011;11284;48.086;-1.652;2023-05-10T06:06:52;14.48;;;3.30;;
22230;SDS011;11284;48.086;-1.652;2023-05-10T06:09:18;13.55;;;3.75;;
22230;SDS011;11284;48.086;-1.652;2023-05-10T06:11:44;14.70;;;3.50;;
22230;SDS011;11284;48.086;-1.652;2023-05-10T06:14:11;16.17;;;3.78;;
22230;SDS011;11284;48.086;-1.652;2023-05-10T06:16:37;17.58;;;3.60;;
22230;SDS011;11284;48.086;-1.652;2023-05-10T06:19:03;16.35;;;3.65;;
22230;SDS011;11284;48.086;-1.652;2023-05-10T06:21:29;22.92;;;4.40;;
22230;SDS011;11284;48.086;-1.652;2023-05-10T06:23:55;19.58;;;3.08;;
22230;SDS011;11284;48.086;-1.652;2023-05-10T06:26:21;16.52;;;3.85;;
22230;SDS011;11284;48.086;-1.652;2023-05-10T06:28:47;14.40;;;3.45;;
22230;SDS011;11284;48.086;-1.652;2023-05-10T06:31:13;19.15;;;4.22;;
22230;SDS011;11284;48.086;-1.652;2023-05-10T06:33:39;19.58;;;4.47;;
22230;SDS011;11284;48.086;-1.652;2023-05-10T06:36:05;25.58;;;4.68;;
22230;SDS011;11284;48.086;-1.652;2023-05-10T06:38:31;16.77;;;4.50;;
22230;SDS011;11284;48.086;-1.652;2023-05-10T06:40:58;16.83;;;3.40;;
22230;SDS011;11284;48.086;-1.652;2023-05-10T06:43:24;15.90;;;3.90;;
22230;SDS011;11284;48.086;-1.652;2023-05-10T06:45:51;18.60;;;3.55;;
22230;SDS011;11284;48.086;-1.652;2023-05-10T06:48:17;17.65;;;3.55;;
22230;SDS011;11284;48.086;-1.652;2023-05-10T06:50:43;16.48;;;3.75;;
22230;SDS011;11284;48.086;-1.652;2023-05-10T06:53:09;18.65;;;3.70;;
22230;SDS011;11284;48.086;-1.652;2023-05-10T06:55:37;18.88;;;3.88;;
22230;SDS011;11284;48.086;-1.652;2023-05-10T06:58:03;15.27;;;3.17;;
22230;SDS011;11284;48.086;-1.652;2023-05-10T07:00:29;15.77;;;3.08;;
22230;SDS011;11284;48.086;-1.652;2023-05-10T07:02:55;15.50;;;2.92;;
22230;SDS011;11284;48.086;-1.652;2023-05-10T07:05:21;13.43;;;3.33;;
22230;SDS011;11284;48.086;-1.652;2023-05-10T07:07:47;15.60;;;3.75;;
22230;SDS011;11284;48.086;-1.652;2023-05-10T07:10:13;15.00;;;3.88;;
22230;SDS011;11284;48.086;-1.652;2023-05-10T07:12:39;19.08;;;3.67;;
22230;SDS011;11284;48.086;-1.652;2023-05-10T07:15:05;14.35;;;3.53;;
22230;SDS011;11284;48.086;-1.652;2023-05-10T07:17:31;13.35;;;3.55;;
22230;SDS011;11284;48.086;-1.652;2023-05-10T07:19:58;18.13;;;3.55;;
22230;SDS011;11284;48.086;-1.652;2023-05-10T07:22:25;17.58;;;3.50;;
22230;SDS011;11284;48.086;-1.652;2023-05-10T07:24:51;17.08;;;3.47;;
22230;SDS011;11284;48.086;-1.652;2023-05-10T07:27:17;18.73;;;3.85;;
22230;SDS011;11284;48.086;-1.652;2023-05-10T07:29:43;14.65;;;3.33;;
22230;SDS011;11284;48.086;-1.652;2023-05-10T07:32:09;18.67;;;3.50;;
22230;SDS011;11284;48.086;-1.652;2023-05-10T07:34:35;14.40;;;3.75;;
22230;SDS011;11284;48.086;-1.652;2023-05-10T07:37:01;13.50;;;3.40;;
22230;SDS011;11284;48.086;-1.652;2023-05-10T07:39:27;17.15;;;3.45;;
22230;SDS011;11284;48.086;-1.652;2023-05-10T07:41:53;14.00;;;3.45;;
22230;SDS011;11284;48.086;-1.652;2023-05-10T07:44:19;15.23;;;3.63;;
22230;SDS011;11284;48.086;-1.652;2023-05-10T07:46:46;15.15;;;3.15;;
22230;SDS011;11284;48.086;-1.652;2023-05-10T07:49:12;16.27;;;3.30;;
22230;SDS011;11284;48.086;-1.652;2023-05-10T07:51:38;14.65;;;3.05;;
22230;SDS011;11284;48.086;-1.652;2023-05-10T07:54:04;12.57;;;3.03;;
22230;SDS011;11284;48.086;-1.652;2023-05-10T07:56:31;14.68;;;3.03;;
22230;SDS011;11284;48.086;-1.652;2023-05-10T07:59:01;16.67;;;3.95;;
22230;SDS011;11284;48.086;-1.652;2023-05-10T08:01:30;14.48;;;2.92;;
22230;SDS011;11284;48.086;-1.652;2023-05-10T08:03:57;13.95;;;3.47;;
22230;SDS011;11284;48.086;-1.652;2023-05-10T08:06:23;13.55;;;2.92;;
22230;SDS011;11284;48.086;-1.652;2023-05-10T08:08:51;11.38;;;2.92;;
22230;SDS011;11284;48.086;-1.652;2023-05-10T08:11:19;14.98;;;3.22;;
22230;SDS011;11284;48.086;-1.652;2023-05-10T08:13:45;13.60;;;3.08;;
22230;SDS011;11284;48.086;-1.652;2023-05-10T08:16:11;16.80;;;3.40;;
22230;SDS011;11284;48.086;-1.652;2023-05-10T08:18:38;14.68;;;3.28;;
22230;SDS011;11284;48.086;-1.652;2023-05-10T08:21:04;18.85;;;3.60;;
22230;SDS011;11284;48.086;-1.652;2023-05-10T08:23:30;13.27;;;3.38;;
22230;SDS011;11284;48.086;-1.652;2023-05-10T08:25:56;11.90;;;3.30;;
22230;SDS011;11284;48.086;-1.652;2023-05-10T08:28:22;12.82;;;2.97;;
22230;SDS011;11284;48.086;-1.652;2023-05-10T08:30:49;15.20;;;3.15;;
22230;SDS011;11284;48.086;-1.652;2023-05-10T08:33:17;10.80;;;2.83;;
22230;SDS011;11284;48.086;-1.652;2023-05-10T08:35:43;12.23;;;2.88;;
22230;SDS011;11284;48.086;-1.652;2023-05-10T08:38:09;14.77;;;2.78;;
22230;SDS011;11284;48.086;-1.652;2023-05-10T08:40:36;10.93;;;2.63;;
22230;SDS011;11284;48.086;-1.652;2023-05-10T08:43:06;12.25;;;2.63;;
22230;SDS011;11284;48.086;-1.652;2023-05-10T08:45:36;14.20;;;3.28;;
22230;SDS011;11284;48.086;-1.652;2023-05-10T08:48:02;12.18;;;3.33;;
22230;SDS011;11284;48.086;-1.652;2023-05-10T08:50:30;10.88;;;3.13;;
22230;SDS011;11284;48.086;-1.652;2023-05-10T08:52:57;8.30;;;2.72;;
22230;SDS011;11284;48.086;-1.652;2023-05-10T08:55:24;12.52;;;2.72;;
22230;SDS011;11284;48.086;-1.652;2023-05-10T08:57:51;10.75;;;2.90;;
22230;SDS011;11284;48.086;-1.652;2023-05-10T09:00:17;11.02;;;2.75;;
22230;SDS011;11284;48.086;-1.652;2023-05-10T09:02:44;8.63;;;2.55;;
22230;SDS011;11284;48.086;-1.652;2023-05-10T09:05:11;8.65;;;2.28;;
22230;SDS011;11284;48.086;-1.652;2023-05-10T09:07:37;9.20;;;2.17;;
22230;SDS011;11284;48.086;-1.652;2023-05-10T09:10:04;12.75;;;3.03;;
22230;SDS011;11284;48.086;-1.652;2023-05-10T09:12:30;12.63;;;2.83;;
22230;SDS011;11284;48.086;-1.652;2023-05-10T09:14:57;12.00;;;2.47;;
22230;SDS011;11284;48.086;-1.652;2023-05-10T09:17:23;11.18;;;2.58;;
22230;SDS011;11284;48.086;-1.652;2023-05-10T09:19:50;10.35;;;2.30;;
22230;SDS011;11284;48.086;-1.652;2023-05-10T09:22:22;13.27;;;2.90;;
22230;SDS011;11284;48.086;-1.652;2023-05-10T09:25:02;14.30;;;2.70;;
22230;SDS011;11284;48.086;-1.652;2023-05-10T09:27:28;14.50;;;2.47;;
22230;SDS011;11284;48.086;-1.652;2023-05-10T09:29:54;12.45;;;2.65;;
22230;SDS011;11284;48.086;-1.652;2023-05-10T09:32:20;14.07;;;2.92;;
22230;SDS011;11284;48.086;-1.652;2023-05-10T09:34:47;10.18;;;2.85;;
22230;SDS011;11284;48.086;-1.652;2023-05-10T09:37:15;18.00;;;4.97;;
22230;SDS011;11284;48.086;-1.652;2023-05-10T09:39:42;8.75;;;2.65;;
22230;SDS011;11284;48.086;-1.652;2023-05-10T09:42:08;10.75;;;3.72;;
22230;SDS011;11284;48.086;-1.652;2023-05-10T09:44:34;9.00;;;3.15;;
22230;SDS011;11284;48.086;-1.652;2023-05-10T09:47:01;11.27;;;3.00;;
22230;SDS011;11284;48.086;-1.652;2023-05-10T09:49:27;14.82;;;3.00;;
22230;SDS011;11284;48.086;-1.652;2023-05-10T09:52:03;13.60;;;3.00;;
22230;SDS011;11284;48.086;-1.652;2023-05-10T09:54:30;13.52;;;3.70;;
22230;SDS011;11284;48.086;-1.652;2023-05-10T09:56:56;14.25;;;3.58;;
22230;SDS011;11284;48.086;-1.652;2023-05-10T09:59:24;12.57;;;3.20;;
22230;SDS011;11284;48.086;-1.652;2023-05-10T10:01:52;12.38;;;3.45;;
22230;SDS011;11284;48.086;-1.652;2023-05-10T10:04:18;12.05;;;3.40;;
22230;SDS011;11284;48.086;-1.652;2023-05-10T10:06:46;12.32;;;3.53;;
22230;SDS011;11284;48.086;-1.652;2023-05-10T10:09:12;10.85;;;3.10;;
22230;SDS011;11284;48.086;-1.652;2023-05-10T10:11:39;13.23;;;3.10;;
22230;SDS011;11284;48.086;-1.652;2023-05-10T10:14:06;10.93;;;3.08;;
22230;SDS011;11284;48.086;-1.652;2023-05-10T10:16:32;16.27;;;6.32;;
22230;SDS011;11284;48.086;-1.652;2023-05-10T10:18:58;11.68;;;3.65;;
22230;SDS011;11284;48.086;-1.652;2023-05-10T10:21:24;12.65;;;4.65;;
22230;SDS011;11284;48.086;-1.652;2023-05-10T10:23:51;10.18;;;3.00;;
22230;SDS011;11284;48.086;-1.652;2023-05-10T10:26:18;9.77;;;2.72;;
22230;SDS011;11284;48.086;-1.652;2023-05-10T10:29:00;9.80;;;2.40;;
22230;SDS011;11284;48.086;-1.652;2023-05-10T10:34:27;16.73;;;8.23;;
22230;SDS011;11284;48.086;-1.652;2023-05-10T10:36:54;11.82;;;3.15;;
22230;SDS011;11284;48.086;-1.652;2023-05-10T10:39:20;14.30;;;3.60;;
22230;SDS011;11284;48.086;-1.652;2023-05-10T10:41:50;11.60;;;3.15;;
22230;SDS011;11284;48.086;-1.652;2023-05-10T10:47:02;10.95;;;2.63;;
22230;SDS011;11284;48.086;-1.652;2023-05-10T10:49:30;10.18;;;2.78;;
22230;SDS011;11284;48.086;-1.652;2023-05-10T10:55:09;12.27;;;2.50;;
22230;SDS011;11284;48.086;-1.652;2023-05-10T11:00:17;9.82;;;2.40;;
22230;SDS011;11284;48.086;-1.652;2023-05-10T11:02:44;8.60;;;2.30;;
22230;SDS011;11284;48.086;-1.652;2023-05-10T11:07:56;7.55;;;2.92;;
22230;SDS011;11284;48.086;-1.652;2023-05-10T11:10:23;9.18;;;2.15;;
22230;SDS011;11284;48.086;-1.652;2023-05-10T11:15:31;10.27;;;2.38;;
22230;SDS011;11284;48.086;-1.652;2023-05-10T11:17:57;15.77;;;8.38;;
22230;SDS011;11284;48.086;-1.652;2023-05-10T11:20:23;5.70;;;1.80;;
22230;SDS011;11284;48.086;-1.652;2023-05-10T11:22:58;4.75;;;1.77;;
22230;SDS011;11284;48.086;-1.652;2023-05-10T11:25:27;11.52;;;3.47;;
22230;SDS011;11284;48.086;-1.652;2023-05-10T11:27:53;7.05;;;1.80;;
22230;SDS011;11284;48.086;-1.652;2023-05-10T11:30:19;7.85;;;2.08;;
22230;SDS011;11284;48.086;-1.652;2023-05-10T11:32:45;5.70;;;1.65;;
22230;SDS011;11284;48.086;-1.652;2023-05-10T11:35:11;5.38;;;1.25;;
22230;SDS011;11284;48.086;-1.652;2023-05-10T11:37:38;7.25;;;1.95;;
22230;SDS011;11284;48.086;-1.652;2023-05-10T11:40:08;7.05;;;1.73;;
22230;SDS011;11284;48.086;-1.652;2023-05-10T11:42:37;5.93;;;1.48;;
22230;SDS011;11284;48.086;-1.652;2023-05-10T11:45:04;7.60;;;1.50;;
22230;SDS011;11284;48.086;-1.652;2023-05-10T11:47:30;6.28;;;1.50;;
22230;SDS011;11284;48.086;-1.652;2023-05-10T11:49:56;3.33;;;1.00;;
22230;SDS011;11284;48.086;-1.652;2023-05-10T11:52:22;13.60;;;2.33;;
22230;SDS011;11284;48.086;-1.652;2023-05-10T11:54:52;20.42;;;2.72;;
22230;SDS011;11284;48.086;-1.652;2023-05-10T11:57:20;4.18;;;1.27;;
22230;SDS011;11284;48.086;-1.652;2023-05-10T11:59:47;4.95;;;1.30;;
22230;SDS011;11284;48.086;-1.652;2023-05-10T12:02:13;8.38;;;1.70;;
22230;SDS011;11284;48.086;-1.652;2023-05-10T12:04:39;5.35;;;1.25;;
22230;SDS011;11284;48.086;-1.652;2023-05-10T12:07:06;5.53;;;1.48;;
22230;SDS011;11284;48.086;-1.652;2023-05-10T12:09:32;7.53;;;1.40;;
22230;SDS011;11284;48.086;-1.652;2023-05-10T12:11:58;8.40;;;3.53;;
22230;SDS011;11284;48.086;-1.652;2023-05-10T12:14:24;5.47;;;1.30;;
22230;SDS011;11284;48.086;-1.652;2023-05-10T12:16:50;4.88;;;1.40;;
22230;SDS011;11284;48.086;-1.652;2023-05-10T12:19:19;3.90;;;1.35;;
22230;SDS011;11284;48.086;-1.652;2023-05-10T12:21:46;5.35;;;1.20;;
22230;SDS011;11284;48.086;-1.652;2023-05-10T12:24:12;5.10;;;1.55;;
22230;SDS011;11284;48.086;-1.652;2023-05-10T12:26:41;4.63;;;1.30;;
22230;SDS011;11284;48.086;-1.652;2023-05-10T12:29:19;6.53;;;1.50;;
22230;SDS011;11284;48.086;-1.652;2023-05-10T12:31:52;6.07;;;1.52;;
22230;SDS011;11284;48.086;-1.652;2023-05-10T12:34:37;6.88;;;1.67;;
22230;SDS011;11284;48.086;-1.652;2023-05-10T12:37:03;7.53;;;1.80;;
22230;SDS011;11284;48.086;-1.652;2023-05-10T12:39:42;6.38;;;1.42;;
22230;SDS011;11284;48.086;-1.652;2023-05-10T12:42:09;7.10;;;1.80;;
22230;SDS011;11284;48.086;-1.652;2023-05-10T12:44:35;6.10;;;1.50;;
22230;SDS011;11284;48.086;-1.652;2023-05-10T12:47:01;7.43;;;1.98;;
22230;SDS011;11284;48.086;-1.652;2023-05-10T12:49:27;7.15;;;1.73;;
22230;SDS011;11284;48.086;-1.652;2023-05-10T12:51:53;4.88;;;1.75;;
22230;SDS011;11284;48.086;-1.652;2023-05-10T12:54:19;6.28;;;1.92;;
22230;SDS011;11284;48.086;-1.652;2023-05-10T12:56:45;7.07;;;2.15;;
22230;SDS011;11284;48.086;-1.652;2023-05-10T12:59:11;8.27;;;2.33;;
22230;SDS011;11284;48.086;-1.652;2023-05-10T13:01:37;8.73;;;2.20;;
22230;SDS011;11284;48.086;-1.652;2023-05-10T13:04:03;6.45;;;1.98;;
22230;SDS011;11284;48.086;-1.652;2023-05-10T13:06:29;9.32;;;2.40;;
22230;SDS011;11284;48.086;-1.652;2023-05-10T13:08:56;9.00;;;2.63;;
22230;SDS011;11284;48.086;-1.652;2023-05-10T13:11:22;7.70;;;2.40;;
22230;SDS011;11284;48.086;-1.652;2023-05-10T13:13:48;6.63;;;2.10;;
22230;SDS011;11284;48.086;-1.652;2023-05-10T13:16:14;7.93;;;2.30;;
22230;SDS011;11284;48.086;-1.652;2023-05-10T13:18:40;6.85;;;1.98;;
22230;SDS011;11284;48.086;-1.652;2023-05-10T13:21:06;6.78;;;1.75;;
22230;SDS011;11284;48.086;-1.652;2023-05-10T13:23:32;6.03;;;1.73;;
22230;SDS011;11284;48.086;-1.652;2023-05-10T13:25:58;8.00;;;1.80;;
22230;SDS011;11284;48.086;-1.652;2023-05-10T13:28:24;5.80;;;2.00;;
22230;SDS011;11284;48.086;-1.652;2023-05-10T13:30:51;5.75;;;1.80;;
22230;SDS011;11284;48.086;-1.652;2023-05-10T13:33:17;7.10;;;1.95;;
22230;SDS011;11284;48.086;-1.652;2023-05-10T13:35:43;6.00;;;2.45;;
22230;SDS011;11284;48.086;-1.652;2023-05-10T13:38:09;7.47;;;1.50;;
22230;SDS011;11284;48.086;-1.652;2023-05-10T13:40:35;5.38;;;1.58;;
22230;SDS011;11284;48.086;-1.652;2023-05-10T13:43:01;5.28;;;1.58;;
22230;SDS011;11284;48.086;-1.652;2023-05-10T13:45:27;6.28;;;1.58;;
22230;SDS011;11284;48.086;-1.652;2023-05-10T13:47:53;4.85;;;1.17;;
22230;SDS011;11284;48.086;-1.652;2023-05-10T13:50:19;6.53;;;1.55;;
22230;SDS011;11284;48.086;-1.652;2023-05-10T13:52:45;7.53;;;1.40;;
22230;SDS011;11284;48.086;-1.652;2023-05-10T13:55:12;4.85;;;0.93;;
22230;SDS011;11284;48.086;-1.652;2023-05-10T13:57:38;6.78;;;2.17;;
22230;SDS011;11284;48.086;-1.652;2023-05-10T14:00:04;5.70;;;1.38;;
22230;SDS011;11284;48.086;-1.652;2023-05-10T14:02:30;5.50;;;1.58;;
22230;SDS011;11284;48.086;-1.652;2023-05-10T14:04:56;5.88;;;2.63;;
22230;SDS011;11284;48.086;-1.652;2023-05-10T14:07:22;4.60;;;1.60;;
22230;SDS011;11284;48.086;-1.652;2023-05-10T14:09:48;4.75;;;1.35;;
22230;SDS011;11284;48.086;-1.652;2023-05-10T14:12:15;4.55;;;1.13;;
22230;SDS011;11284;48.086;-1.652;2023-05-10T14:14:41;7.63;;;1.63;;
22230;SDS011;11284;48.086;-1.652;2023-05-10T14:17:07;7.88;;;1.80;;
22230;SDS011;11284;48.086;-1.652;2023-05-10T14:19:33;6.65;;;1.40;;
22230;SDS011;11284;48.086;-1.652;2023-05-10T14:21:59;7.60;;;1.48;;
22230;SDS011;11284;48.086;-1.652;2023-05-10T14:24:25;4.70;;;1.25;;
22230;SDS011;11284;48.086;-1.652;2023-05-10T14:26:51;5.28;;;1.00;;
22230;SDS011;11284;48.086;-1.652;2023-05-10T14:29:19;6.22;;;1.35;;
22230;SDS011;11284;48.086;-1.652;2023-05-10T14:31:45;5.30;;;1.15;;
22230;SDS011;11284;48.086;-1.652;2023-05-10T14:34:11;4.30;;;1.30;;
22230;SDS011;11284;48.086;-1.652;2023-05-10T14:36:37;7.45;;;1.95;;
22230;SDS011;11284;48.086;-1.652;2023-05-10T14:39:03;4.88;;;1.35;;
22230;SDS011;11284;48.086;-1.652;2023-05-10T14:41:29;4.95;;;1.13;;
22230;SDS011;11284;48.086;-1.652;2023-05-10T14:43:56;4.28;;;1.20;;
22230;SDS011;11284;48.086;-1.652;2023-05-10T14:46:22;5.63;;;1.30;;
22230;SDS011;11284;48.086;-1.652;2023-05-10T14:48:48;8.90;;;1.55;;